Trim Flying Club goes to the Aran Islands

Learn to fly at Trim Flying Club

Rainfall Radar Now

Atlantic Charts Pressure - Today

Atlantic Charts Rainfall - Today

 
 

Atlantic Charts Pressure - Tomorrow

Sunrise Sunset

Click for Dublin, Ireland Forecast

Aviation WX Dublin EIDW

[source: ADDS]
METAR
EIDW 231930Z 19008KT 9999 FEW027 SCT250 12/05 Q1013 NOSIG =
TAF
TAF EIDW 231700Z 2318/2418 18011KT 9999 FEW018 SCT032 BECMG 2318/2320 20009KT BECMG 2323/2402 16006KT =